Edith Kirk — 2DST9 — position and weather

sailwx.info

Track history (hours):
 
Tides and Currents Weather Stations Pressure Air Temp Water Temp Dewpoint Dewpoint Depression Visibility Wind Speed Wind Dir Waves Ship Positions

Edith Kirk

Last reported at 2016-May-02 00:33 UTC. Time now 2016-May-02 01:29 UTC.
Position N 59°42' E 023°49'.

Length 183 m; draft 10.3 m.

Type: Ship. MMSI: 235081745.

Date/timePositionNaut miles runAvg speedWind from/ knotsBaromVisibWave heightAir tempDewpointWater temp
2016-May-02 00:33N 59°42' E 023°49'1313.3
2016-May-01 23:33N 59°46' E 024°14'5313.3
2016-May-01 19:33N 59°57' E 025°58'1313.1
2016-May-01 18:33N 60°00' E 026°23'1312.9
2016-May-01 17:33N 60°00' E 026°49'1212.5
2016-May-01 16:33N 60°03' E 027°14'1313.3
2016-May-01 15:33N 60°10' E 027°37'1212.2
2016-May-01 14:33N 60°10' E 028°01'1313.0
2016-May-01 13:33N 60°05' E 028°25'1313.2
2016-May-01 12:33N 60°03' E 028°51'2512.2
2016-May-01 10:33N 59°60' E 029°39'1010.1
2016-May-01 09:33N 59°56' E 029°58'7 6.6
2016-May-01 08:33N 59°53' E 030°10'0 0.0
2016-Apr-30 04:29N 59°53' E 030°10'2 2.1
2016-Apr-30 03:33N 59°54' E 030°07'8 8.3
2016-Apr-30 02:33N 59°57' E 029°51'1111.2
2016-Apr-30 01:33N 60°01' E 029°30'4 3.7
2016-Apr-30 00:32N 60°01' E 029°23'0 0.0
2016-Apr-29 22:32N 60°01' E 029°23'0 0.0
2016-Apr-29 21:29N 60°01' E 029°23'0 0.0
2016-Apr-29 20:17N 60°01' E 029°23'0 0.0
2016-Apr-29 19:32N 60°01' E 029°23'13 3.3
2016-Apr-29 15:34N 60°02' E 028°56'1413.6
2016-Apr-29 14:34N 60°03' E 028°29'1313.4
2016-Apr-29 13:34N 60°09' E 028°05'1313.1
2016-Apr-29 12:33N 60°09' E 027°39'1414.2
2016-Apr-29 11:33N 60°01' E 027°15'1313.1
2016-Apr-29 10:33N 59°59' E 026°49'1614.1
2016-Apr-29 09:24N 59°56' E 026°17'1414.2
2016-Apr-29 08:23N 59°52' E 025°49'5514.1
2016-Apr-29 04:28N 59°40' E 024°02'1314.5
2016-Apr-29 03:34N 59°36' E 023°37'1414.3
2016-Apr-29 02:33N 59°31' E 023°11'34214.2
2016-Apr-28 02:28N 55°38' E 015°23'1314.3
2016-Apr-28 01:33N 55°32' E 015°02'1414.1
2016-Apr-28 00:33N 55°25' E 014°41'1414.3
2016-Apr-27 23:33N 55°14' E 014°25'1414.4
2016-Apr-27 22:33N 55°02' E 014°09'1514.5
2016-Apr-27 21:33N 54°57' E 013°46'3314.4
2016-Apr-27 19:16N 54°46' E 012°52'2513.7
2016-Apr-27 17:28N 54°32' E 012°17'1112.1
2016-Apr-27 16:33N 54°24' E 012°03'1414.1
2016-Apr-27 15:34N 54°27' E 011°39'1414.3
2016-Apr-27 14:33N 54°33' E 011°17'1514.7
2016-Apr-27 13:33N 54°35' E 010°52'1414.3
2016-Apr-27 12:33N 54°32' E 010°27'1211.7
2016-Apr-27 11:33N 54°24' E 010°12'3 3.2
2016-Apr-27 10:33N 54°22' E 010°08'5 4.9
2016-Apr-27 09:33N 54°21' E 010°00'6 5.9
2016-Apr-27 08:33N 54°22' E 009°50'7 7.3
2016-Apr-27 07:33N 54°17' E 009°40'5 4.6
2016-Apr-27 06:33N 54°13' E 009°36'8 7.8
2016-Apr-27 05:33N 54°10' E 009°24'6 5.8
2016-Apr-27 04:32N 54°05' E 009°19'4 4.5
2016-Apr-27 03:33N 54°00' E 009°18'6 6.3
2016-Apr-27 02:34N 53°55' E 009°11'2 2.1
2016-Apr-27 01:33N 53°54' E 009°09'6 5.7
2016-Apr-27 00:33N 53°51' E 009°00'1312.6
2016-Apr-26 23:34N 53°55' E 008°40'1515.1
2016-Apr-26 22:33N 53°60' E 008°15'1110.9
2016-Apr-26 21:33N 54°02' E 007°57'1212.2
2016-Apr-26 20:33N 54°08' E 007°39'1312.9
2016-Apr-26 19:33N 54°09' E 007°17'1312.9
2016-Apr-26 18:33N 54°09' E 006°55'1312.5
2016-Apr-26 17:33N 54°09' E 006°34'1312.4
2016-Apr-26 16:28N 54°08' E 006°11'1212.5
2016-Apr-26 15:33N 54°06' E 005°51'1313.1
2016-Apr-26 14:33N 54°04' E 005°29'1713.3
2016-Apr-26 13:15N 54°01' E 005°00'913.5
2016-Apr-26 12:33N 53°59' E 004°45'13612.3
2016-Apr-26 01:31N 52°06' E 002°40'1212.1
2016-Apr-26 00:33N 51°54' E 002°38'2611.3
2016-Apr-25 22:17N 51°32' E 002°17'811.5
2016-Apr-25 21:33N 51°26' E 002°08'1211.4
2016-Apr-25 20:28N 51°22' E 002°27'1213.6
2016-Apr-25 19:34N 51°25' E 002°47'1413.9
2016-Apr-25 18:33N 51°24' E 003°09'1514.9
2016-Apr-25 17:33N 51°25' E 003°33'7 6.5
2016-Apr-25 16:30N 51°25' E 003°44'0 0.0
2016-Apr-25 15:30N 51°25' E 003°44'0 0.0
2016-Apr-25 14:33N 51°25' E 003°44'0 0.0
2016-Apr-25 13:27N 51°25' E 003°44'0 0.0
2016-Apr-25 12:33N 51°25' E 003°44'0 0.0
2016-Apr-25 11:33N 51°25' E 003°44'0 0.0
2016-Apr-25 10:33N 51°25' E 003°44'0 0.0
2016-Apr-25 09:33N 51°25' E 003°44'  
2016-Apr-22 17:23N 51°25' E 003°44'0 0.1
2016-Apr-22 16:33N 51°25' E 003°44'6 6.2
2016-Apr-22 15:33N 51°26' E 003°34'1110.7
2016-Apr-22 14:33N 51°24' E 003°17'1312.8
2016-Apr-22 13:33N 51°23' E 002°56'1312.7
2016-Apr-22 12:33N 51°22' E 002°36'1514.0
2016-Apr-22 11:28N 51°19' E 002°12'1111.6
2016-Apr-22 10:33N 51°27' E 002°00'1515.3
2016-Apr-22 09:33N 51°38' E 002°17'1615.9
2016-Apr-22 08:32N 51°51' E 002°34'10213.9
2016-Apr-22 01:14N 53°26' E 003°32'  
Track history (hours):
 
Tides and Currents Weather Stations Pressure Air Temp Water Temp Dewpoint Dewpoint Depression Visibility Wind Speed Wind Dir Waves Ship Positions

Edith Kirk

Last reported at 2016-May-02 00:33 UTC. Time now 2016-May-02 01:29 UTC.
Position N 59°42' E 023°49'.

Length 183 m; draft 10.3 m.

Type: Ship. MMSI: 235081745.

Date/timePositionNaut miles runAvg speedWind from/ knotsBaromVisibWave heightAir tempDewpointWater temp
2016-May-02 00:33N 59°42' E 023°49'1313.3
2016-May-01 23:33N 59°46' E 024°14'5313.3
2016-May-01 19:33N 59°57' E 025°58'1313.1
2016-May-01 18:33N 60°00' E 026°23'1312.9
2016-May-01 17:33N 60°00' E 026°49'1212.5
2016-May-01 16:33N 60°03' E 027°14'1313.3
2016-May-01 15:33N 60°10' E 027°37'1212.2
2016-May-01 14:33N 60°10' E 028°01'1313.0
2016-May-01 13:33N 60°05' E 028°25'1313.2
2016-May-01 12:33N 60°03' E 028°51'2512.2
2016-May-01 10:33N 59°60' E 029°39'1010.1
2016-May-01 09:33N 59°56' E 029°58'7 6.6
2016-May-01 08:33N 59°53' E 030°10'0 0.0
2016-Apr-30 04:29N 59°53' E 030°10'2 2.1
2016-Apr-30 03:33N 59°54' E 030°07'8 8.3
2016-Apr-30 02:33N 59°57' E 029°51'1111.2
2016-Apr-30 01:33N 60°01' E 029°30'4 3.7
2016-Apr-30 00:32N 60°01' E 029°23'0 0.0
2016-Apr-29 22:32N 60°01' E 029°23'0 0.0
2016-Apr-29 21:29N 60°01' E 029°23'0 0.0
2016-Apr-29 20:17N 60°01' E 029°23'0 0.0
2016-Apr-29 19:32N 60°01' E 029°23'13 3.3
2016-Apr-29 15:34N 60°02' E 028°56'1413.6
2016-Apr-29 14:34N 60°03' E 028°29'1313.4
2016-Apr-29 13:34N 60°09' E 028°05'1313.1
2016-Apr-29 12:33N 60°09' E 027°39'1414.2
2016-Apr-29 11:33N 60°01' E 027°15'1313.1
2016-Apr-29 10:33N 59°59' E 026°49'1614.1
2016-Apr-29 09:24N 59°56' E 026°17'1414.2
2016-Apr-29 08:23N 59°52' E 025°49'5514.1
2016-Apr-29 04:28N 59°40' E 024°02'1314.5
2016-Apr-29 03:34N 59°36' E 023°37'1414.3
2016-Apr-29 02:33N 59°31' E 023°11'34214.2
2016-Apr-28 02:28N 55°38' E 015°23'1314.3
2016-Apr-28 01:33N 55°32' E 015°02'1414.1
2016-Apr-28 00:33N 55°25' E 014°41'1414.3
2016-Apr-27 23:33N 55°14' E 014°25'1414.4
2016-Apr-27 22:33N 55°02' E 014°09'1514.5
2016-Apr-27 21:33N 54°57' E 013°46'3314.4
2016-Apr-27 19:16N 54°46' E 012°52'2513.7
2016-Apr-27 17:28N 54°32' E 012°17'1112.1
2016-Apr-27 16:33N 54°24' E 012°03'1414.1
2016-Apr-27 15:34N 54°27' E 011°39'1414.3
2016-Apr-27 14:33N 54°33' E 011°17'1514.7
2016-Apr-27 13:33N 54°35' E 010°52'1414.3
2016-Apr-27 12:33N 54°32' E 010°27'1211.7
2016-Apr-27 11:33N 54°24' E 010°12'3 3.2
2016-Apr-27 10:33N 54°22' E 010°08'5 4.9
2016-Apr-27 09:33N 54°21' E 010°00'6 5.9
2016-Apr-27 08:33N 54°22' E 009°50'7 7.3
2016-Apr-27 07:33N 54°17' E 009°40'5 4.6
2016-Apr-27 06:33N 54°13' E 009°36'8 7.8
2016-Apr-27 05:33N 54°10' E 009°24'6 5.8
2016-Apr-27 04:32N 54°05' E 009°19'4 4.5
2016-Apr-27 03:33N 54°00' E 009°18'6 6.3
2016-Apr-27 02:34N 53°55' E 009°11'2 2.1
2016-Apr-27 01:33N 53°54' E 009°09'6 5.7
2016-Apr-27 00:33N 53°51' E 009°00'1312.6
2016-Apr-26 23:34N 53°55' E 008°40'1515.1
2016-Apr-26 22:33N 53°60' E 008°15'1110.9
2016-Apr-26 21:33N 54°02' E 007°57'1212.2
2016-Apr-26 20:33N 54°08' E 007°39'1312.9
2016-Apr-26 19:33N 54°09' E 007°17'1312.9
2016-Apr-26 18:33N 54°09' E 006°55'1312.5
2016-Apr-26 17:33N 54°09' E 006°34'1312.4
2016-Apr-26 16:28N 54°08' E 006°11'1212.5
2016-Apr-26 15:33N 54°06' E 005°51'1313.1
2016-Apr-26 14:33N 54°04' E 005°29'1713.3
2016-Apr-26 13:15N 54°01' E 005°00'913.5
2016-Apr-26 12:33N 53°59' E 004°45'13612.3
2016-Apr-26 01:31N 52°06' E 002°40'1212.1
2016-Apr-26 00:33N 51°54' E 002°38'2611.3
2016-Apr-25 22:17N 51°32' E 002°17'811.5
2016-Apr-25 21:33N 51°26' E 002°08'1211.4
2016-Apr-25 20:28N 51°22' E 002°27'1213.6
2016-Apr-25 19:34N 51°25' E 002°47'1413.9
2016-Apr-25 18:33N 51°24' E 003°09'1514.9
2016-Apr-25 17:33N 51°25' E 003°33'7 6.5
2016-Apr-25 16:30N 51°25' E 003°44'0 0.0
2016-Apr-25 15:30N 51°25' E 003°44'0 0.0
2016-Apr-25 14:33N 51°25' E 003°44'0 0.0
2016-Apr-25 13:27N 51°25' E 003°44'0 0.0
2016-Apr-25 12:33N 51°25' E 003°44'0 0.0
2016-Apr-25 11:33N 51°25' E 003°44'0 0.0
2016-Apr-25 10:33N 51°25' E 003°44'0 0.0
2016-Apr-25 09:33N 51°25' E 003°44'  
2016-Apr-22 17:23N 51°25' E 003°44'0 0.1
2016-Apr-22 16:33N 51°25' E 003°44'6 6.2
2016-Apr-22 15:33N 51°26' E 003°34'1110.7
2016-Apr-22 14:33N 51°24' E 003°17'1312.8
2016-Apr-22 13:33N 51°23' E 002°56'1312.7
2016-Apr-22 12:33N 51°22' E 002°36'1514.0
2016-Apr-22 11:28N 51°19' E 002°12'1111.6
2016-Apr-22 10:33N 51°27' E 002°00'1515.3
2016-Apr-22 09:33N 51°38' E 002°17'1615.9
2016-Apr-22 08:32N 51°51' E 002°34'10213.9
2016-Apr-22 01:14N 53°26' E 003°32'  

Dump ship's entire track history